createdAt,value
2023-02-24T00:02:22.274Z,16.37
2023-02-24T00:04:51.929Z,19.60
2023-02-24T00:07:23.542Z,16.53
2023-02-24T00:09:52.923Z,15.47
2023-02-24T00:12:24.548Z,16.70
2023-02-24T00:14:52.866Z,16.37
2023-02-24T00:17:27.817Z,17.03
2023-02-24T00:19:56.100Z,17.73
2023-02-24T00:22:26.894Z,16.50
2023-02-24T00:25:01.675Z,14.67
2023-02-24T00:27:42.841Z,15.33
2023-02-24T00:30:14.890Z,14.50
2023-02-24T00:32:44.620Z,15.43
2023-02-24T00:35:12.539Z,15.00
2023-02-24T00:37:40.352Z,13.03
2023-02-24T00:40:13.201Z,14.43
2023-02-24T00:42:43.107Z,11.63
2023-02-24T00:45:16.766Z,14.70
2023-02-24T00:47:47.510Z,14.10
2023-02-24T00:50:22.519Z,14.17
2023-02-24T00:52:53.380Z,13.73
2023-02-24T00:55:25.419Z,13.13
2023-02-24T00:57:54.913Z,14.00
2023-02-24T01:00:23.611Z,13.93
2023-02-24T01:02:52.885Z,14.13
2023-02-24T01:05:30.120Z,14.63
2023-02-24T01:08:21.700Z,13.87
2023-02-24T01:11:17.306Z,15.50
2023-02-24T01:13:46.200Z,13.80
2023-02-24T01:16:19.726Z,13.50
2023-02-24T01:18:53.427Z,16.80
2023-02-24T01:21:25.094Z,15.37
2023-02-24T01:23:56.157Z,15.03
2023-02-24T01:26:26.152Z,16.97
2023-02-24T01:28:56.445Z,14.30
2023-02-24T01:31:28.792Z,17.90
2023-02-24T01:33:56.818Z,16.53
2023-02-24T01:36:27.810Z,15.30
2023-02-24T01:38:57.991Z,14.33
2023-02-24T01:41:30.797Z,15.43
2023-02-24T01:44:09.738Z,15.47
2023-02-24T01:46:39.000Z,15.27
2023-02-24T01:49:09.984Z,15.60
2023-02-24T01:51:44.970Z,16.50
2023-02-24T01:54:17.126Z,14.77
2023-02-24T01:56:48.326Z,16.53
2023-02-24T01:59:19.946Z,15.43
2023-02-24T02:01:48.598Z,15.67
2023-02-24T02:04:36.566Z,16.60
2023-02-24T02:07:04.908Z,16.10
2023-02-24T02:09:34.196Z,15.40
2023-02-24T02:12:09.534Z,16.80
2023-02-24T02:14:50.157Z,17.27
2023-02-24T02:17:26.600Z,16.30
2023-02-24T02:20:16.856Z,16.43
2023-02-24T02:23:06.850Z,16.93
2023-02-24T02:25:49.675Z,16.37
2023-02-24T02:28:38.603Z,16.67
2023-02-24T02:31:46.768Z,19.70
2023-02-24T02:34:23.747Z,18.33
2023-02-24T02:37:02.740Z,18.17
2023-02-24T02:39:48.921Z,19.80
2023-02-24T02:42:28.163Z,18.93
2023-02-24T02:45:05.198Z,16.90
2023-02-24T02:47:37.099Z,16.90
2023-02-24T02:50:12.019Z,18.37
2023-02-24T02:52:42.637Z,16.87
2023-02-24T02:55:14.115Z,19.20
2023-02-24T02:57:48.422Z,18.50
2023-02-24T03:00:21.548Z,19.30
2023-02-24T03:02:55.409Z,18.57
2023-02-24T03:05:37.323Z,18.17
2023-02-24T03:08:12.252Z,16.47
2023-02-24T03:10:44.770Z,18.33
2023-02-24T03:13:16.827Z,18.20
2023-02-24T03:15:45.910Z,18.30
2023-02-24T03:18:19.175Z,20.30
2023-02-24T03:20:52.898Z,17.97
2023-02-24T03:23:27.061Z,16.93
2023-02-24T03:26:00.096Z,17.17
2023-02-24T03:28:37.440Z,18.47
2023-02-24T03:31:18.725Z,18.13
2023-02-24T03:33:51.864Z,18.57
2023-02-24T03:36:23.371Z,17.60
2023-02-24T03:38:58.333Z,18.80
2023-02-24T03:41:30.438Z,19.40
2023-02-24T03:43:59.813Z,21.57
2023-02-24T03:46:30.439Z,20.20
2023-02-24T03:49:08.702Z,20.80
2023-02-24T03:51:44.896Z,19.00
2023-02-24T03:54:21.137Z,22.40
2023-02-24T03:57:00.095Z,18.67
2023-02-24T03:59:39.958Z,20.07
2023-02-24T04:02:14.370Z,19.03
2023-02-24T04:04:46.500Z,19.43
2023-02-24T04:07:18.889Z,17.80
2023-02-24T04:09:51.943Z,20.77
2023-02-24T04:12:25.595Z,20.17
2023-02-24T04:14:57.937Z,20.60
2023-02-24T04:17:28.602Z,19.13
2023-02-24T04:20:02.637Z,20.90
2023-02-24T04:22:42.616Z,20.13
2023-02-24T04:25:15.822Z,18.50
2023-02-24T04:27:44.883Z,18.10
2023-02-24T04:30:21.745Z,19.73
2023-02-24T04:32:54.329Z,19.10
2023-02-24T04:35:25.395Z,19.67
2023-02-24T04:37:58.046Z,20.83
2023-02-24T04:40:28.961Z,19.60
2023-02-24T04:42:57.222Z,19.63
2023-02-24T04:45:31.966Z,20.60
2023-02-24T04:48:03.990Z,22.87
2023-02-24T04:50:34.077Z,20.77
2023-02-24T04:53:09.187Z,20.03
2023-02-24T04:55:49.934Z,20.27
2023-02-24T04:58:20.694Z,23.80
2023-02-24T05:00:52.761Z,21.10
2023-02-24T05:03:28.637Z,22.23
2023-02-24T05:06:00.324Z,22.73
2023-02-24T05:08:32.327Z,19.73
2023-02-24T05:11:05.195Z,22.20
2023-02-24T05:13:34.423Z,20.00
2023-02-24T05:16:09.465Z,22.10
2023-02-24T05:18:40.958Z,22.23
2023-02-24T05:21:30.887Z,23.30
2023-02-24T05:24:04.663Z,21.77
2023-02-24T05:26:33.999Z,21.23
2023-02-24T05:29:06.832Z,19.37
2023-02-24T05:31:34.923Z,20.50
2023-02-24T05:34:03.926Z,21.60
2023-02-24T05:36:33.863Z,20.27
2023-02-24T05:39:07.477Z,22.53
2023-02-24T05:41:39.208Z,19.67
2023-02-24T05:44:10.438Z,20.50
2023-02-24T05:46:41.585Z,18.80
2023-02-24T05:49:14.504Z,17.93
2023-02-24T05:51:47.245Z,19.17
2023-02-24T05:54:24.157Z,20.57
2023-02-24T05:56:54.648Z,20.03
2023-02-24T05:59:23.259Z,20.10
2023-02-24T06:01:53.770Z,19.53
2023-02-24T06:04:39.667Z,20.47
2023-02-24T06:07:09.176Z,16.77
2023-02-24T06:09:40.815Z,18.47
2023-02-24T06:12:09.188Z,19.73
2023-02-24T06:14:37.623Z,15.97
2023-02-24T06:17:06.729Z,18.03
2023-02-24T06:19:38.629Z,19.47
2023-02-24T06:22:10.892Z,18.43
2023-02-24T06:24:44.206Z,19.90
2023-02-24T06:27:17.910Z,19.23
2023-02-24T06:29:50.091Z,19.40
2023-02-24T06:32:23.512Z,21.10
2023-02-24T06:34:54.611Z,21.03
2023-02-24T06:37:24.160Z,23.80
2023-02-24T06:39:53.946Z,21.83
2023-02-24T06:42:22.079Z,19.07
2023-02-24T06:44:50.446Z,20.37
2023-02-24T06:47:19.700Z,23.70
2023-02-24T06:49:48.617Z,19.43
2023-02-24T06:52:19.316Z,21.37
2023-02-24T06:54:50.719Z,22.60
2023-02-24T06:57:23.705Z,21.40
2023-02-24T06:59:52.380Z,23.00
2023-02-24T07:02:20.525Z,20.37
2023-02-24T07:04:51.765Z,19.40
2023-02-24T07:07:19.918Z,19.03
2023-02-24T07:09:48.227Z,20.57
2023-02-24T07:12:21.274Z,24.17
2023-02-24T07:14:51.338Z,24.63
2023-02-24T07:17:22.299Z,22.20
2023-02-24T07:19:50.233Z,20.30
2023-02-24T07:22:25.566Z,20.80
2023-02-24T07:25:00.662Z,19.70
2023-02-24T07:27:28.955Z,23.97
2023-02-24T07:30:01.559Z,21.57
2023-02-24T07:32:31.226Z,20.83
2023-02-24T07:34:59.660Z,20.90
2023-02-24T07:37:31.924Z,18.30
2023-02-24T07:39:59.826Z,19.80
2023-02-24T07:42:30.788Z,18.73
2023-02-24T07:45:00.549Z,20.07
2023-02-24T07:47:29.421Z,22.53
2023-02-24T07:49:57.294Z,19.93
2023-02-24T07:52:28.247Z,18.30
2023-02-24T07:54:56.215Z,18.00
2023-02-24T07:57:25.213Z,17.40
2023-02-24T07:59:57.690Z,18.03
2023-02-24T08:02:30.239Z,20.47
2023-02-24T08:05:03.264Z,19.47
2023-02-24T08:07:33.409Z,15.90
2023-02-24T08:10:25.396Z,16.43
2023-02-24T08:13:03.500Z,13.43
2023-02-24T08:15:34.552Z,15.00
2023-02-24T08:18:06.765Z,13.90
2023-02-24T08:20:52.504Z,15.33
2023-02-24T08:23:23.650Z,14.93
2023-02-24T08:25:51.894Z,14.20
2023-02-24T08:28:19.984Z,13.70
2023-02-24T08:30:56.985Z,14.17
2023-02-24T08:33:30.225Z,13.27
2023-02-24T08:36:02.708Z,13.63
2023-02-24T08:38:41.925Z,13.00
2023-02-24T08:41:19.124Z,13.73
2023-02-24T08:43:51.497Z,13.50
2023-02-24T08:46:28.737Z,11.67
2023-02-24T08:49:00.888Z,11.67
2023-02-24T08:51:43.815Z,12.50
2023-02-24T08:54:15.648Z,12.83
2023-02-24T08:56:50.246Z,12.90
2023-02-24T08:59:38.855Z,11.93
2023-02-24T09:02:24.702Z,11.33
2023-02-24T09:04:56.146Z,9.50
2023-02-24T09:07:28.878Z,11.40
2023-02-24T09:09:57.547Z,10.70
2023-02-24T09:12:32.941Z,10.80
2023-02-24T09:15:06.372Z,12.23
2023-02-24T09:17:52.227Z,9.97
2023-02-24T09:20:41.319Z,10.53
2023-02-24T09:23:25.152Z,11.73
2023-02-24T09:25:54.375Z,10.40
2023-02-24T09:28:26.924Z,10.50
2023-02-24T09:30:59.386Z,11.00
2023-02-24T09:33:29.094Z,11.37
2023-02-24T09:36:10.931Z,8.30
2023-02-24T09:39:00.013Z,9.87
2023-02-24T09:41:33.442Z,11.43
2023-02-24T09:44:08.636Z,12.13
2023-02-24T09:46:54.377Z,11.67
2023-02-24T09:49:26.313Z,10.97
2023-02-24T09:52:00.926Z,8.50
2023-02-24T09:54:36.379Z,9.37
2023-02-24T09:57:10.700Z,10.03
2023-02-24T10:00:01.348Z,9.20
2023-02-24T10:02:44.216Z,10.20
2023-02-24T10:05:24.935Z,10.67
2023-02-24T10:08:00.132Z,11.43
2023-02-24T10:10:35.909Z,10.17
2023-02-24T10:13:14.915Z,10.70
2023-02-24T10:16:07.319Z,11.00
2023-02-24T10:18:41.907Z,10.33
2023-02-24T10:21:21.116Z,11.13
2023-02-24T10:24:03.626Z,12.37
2023-02-24T10:26:59.547Z,14.50
2023-02-24T10:29:50.934Z,11.30
2023-02-24T10:32:34.698Z,13.13
2023-02-24T10:35:16.510Z,13.20
2023-02-24T10:37:44.985Z,13.93
2023-02-24T10:40:26.499Z,14.33
2023-02-24T10:43:10.767Z,14.60
2023-02-24T10:45:50.862Z,14.87
2023-02-24T10:48:40.299Z,14.57
2023-02-24T10:51:20.101Z,15.00
2023-02-24T10:54:09.684Z,15.57
2023-02-24T10:56:59.309Z,13.57
2023-02-24T10:59:58.670Z,15.93
2023-02-24T11:02:33.146Z,15.37
2023-02-24T11:05:27.065Z,12.27
2023-02-24T11:08:12.478Z,12.30
2023-02-24T11:10:58.762Z,13.30
2023-02-24T11:13:45.791Z,13.00
2023-02-24T11:16:31.070Z,13.13
2023-02-24T11:19:07.224Z,12.30
2023-02-24T11:21:38.928Z,12.40
2023-02-24T11:24:12.682Z,12.13
2023-02-24T11:26:46.255Z,12.67
2023-02-24T11:29:38.147Z,11.80
2023-02-24T11:32:18.396Z,15.33
2023-02-24T11:34:52.806Z,12.50
2023-02-24T11:37:34.686Z,13.07
2023-02-24T11:40:05.658Z,13.23
2023-02-24T11:42:38.808Z,14.70
2023-02-24T11:45:18.789Z,11.83
2023-02-24T11:47:54.032Z,12.00
2023-02-24T11:50:31.127Z,12.77
2023-02-24T11:53:01.387Z,13.33
2023-02-24T11:55:36.202Z,12.00
2023-02-24T11:58:08.666Z,13.30
2023-02-24T12:00:40.366Z,10.90
2023-02-24T12:03:19.367Z,13.90
2023-02-24T12:05:51.664Z,13.03
2023-02-24T12:08:28.388Z,11.43
2023-02-24T12:11:07.526Z,11.20
2023-02-24T12:13:40.713Z,10.30
2023-02-24T12:16:16.964Z,11.50
2023-02-24T12:18:48.037Z,11.87
2023-02-24T12:21:22.906Z,12.60
2023-02-24T12:23:53.832Z,9.70
2023-02-24T12:26:27.238Z,9.20
2023-02-24T12:29:11.004Z,10.70
2023-02-24T12:31:53.859Z,9.57
2023-02-24T12:34:39.326Z,8.27
2023-02-24T12:37:26.171Z,8.37
2023-02-24T12:40:03.451Z,9.50
2023-02-24T12:42:39.517Z,8.93
2023-02-24T12:45:13.612Z,8.10
2023-02-24T12:47:58.262Z,10.27
2023-02-24T12:50:34.108Z,7.70
2023-02-24T12:53:07.682Z,6.80
2023-02-24T12:55:46.985Z,6.33
2023-02-24T12:58:19.154Z,6.60
2023-02-24T13:00:59.530Z,6.00
2023-02-24T13:03:39.451Z,6.07
2023-02-24T13:06:14.133Z,6.53
2023-02-24T13:08:56.770Z,5.30
2023-02-24T13:11:33.834Z,6.77
2023-02-24T13:14:05.292Z,4.93
2023-02-24T13:16:39.726Z,6.43
2023-02-24T13:19:20.909Z,6.50
2023-02-24T13:22:03.328Z,6.90
2023-02-24T13:24:31.277Z,6.90
2023-02-24T13:27:08.916Z,6.60
2023-02-24T13:29:45.268Z,7.10
2023-02-24T13:32:32.863Z,7.30
2023-02-24T13:35:05.448Z,7.57
2023-02-24T13:37:36.718Z,7.53
2023-02-24T13:40:24.405Z,8.63
2023-02-24T13:43:01.455Z,10.00
2023-02-24T13:45:33.677Z,8.60
2023-02-24T13:48:17.813Z,6.97
2023-02-24T13:50:59.500Z,7.73
2023-02-24T13:53:51.142Z,7.93
2023-02-24T13:56:42.188Z,8.37
2023-02-24T13:59:21.842Z,7.13
2023-02-24T14:02:01.229Z,7.90
2023-02-24T14:04:32.814Z,9.73
2023-02-24T14:07:05.324Z,6.93
2023-02-24T14:09:35.718Z,6.93
2023-02-24T14:12:07.227Z,8.10
2023-02-24T14:14:36.525Z,6.73
2023-02-24T14:17:10.358Z,6.30
2023-02-24T14:19:39.158Z,7.00
2023-02-24T14:22:20.977Z,6.87
2023-02-24T14:24:55.323Z,7.23
2023-02-24T14:27:26.567Z,7.00
2023-02-24T14:29:55.276Z,5.80
2023-02-24T14:32:25.243Z,6.17
2023-02-24T14:34:54.783Z,8.00
2023-02-24T14:37:31.952Z,6.37
2023-02-24T14:40:05.949Z,7.20
2023-02-24T14:42:34.486Z,8.00
2023-02-24T14:45:06.294Z,6.93
2023-02-24T14:47:43.165Z,6.97
2023-02-24T14:50:20.520Z,7.30
2023-02-24T14:52:53.156Z,6.40
2023-02-24T14:55:28.086Z,7.00
2023-02-24T14:58:00.303Z,7.97
2023-02-24T15:00:31.565Z,6.53
2023-02-24T15:03:05.821Z,7.43
2023-02-24T15:05:44.646Z,7.80
2023-02-24T15:08:37.443Z,7.10
2023-02-24T15:11:12.425Z,8.20
2023-02-24T15:13:44.439Z,7.13
2023-02-24T15:16:15.847Z,8.33
2023-02-24T15:18:43.952Z,7.97
2023-02-24T15:21:21.191Z,9.77
2023-02-24T15:24:19.014Z,8.57
2023-02-24T15:26:56.863Z,9.17
2023-02-24T15:29:27.125Z,8.67
2023-02-24T15:31:56.140Z,8.80
2023-02-24T15:34:26.511Z,9.47
2023-02-24T15:36:59.025Z,9.40
2023-02-24T15:39:33.435Z,9.70
2023-02-24T15:42:08.544Z,9.03
2023-02-24T15:44:37.099Z,10.17
2023-02-24T15:47:20.736Z,10.97
2023-02-24T15:49:48.545Z,10.27
2023-02-24T15:52:23.283Z,8.50
2023-02-24T15:54:58.052Z,8.90
2023-02-24T15:57:27.900Z,9.50
2023-02-24T15:59:55.752Z,9.00
2023-02-24T16:02:24.609Z,10.47
2023-02-24T16:04:53.346Z,10.17
2023-02-24T16:07:26.306Z,10.40
2023-02-24T16:09:58.296Z,10.17
2023-02-24T16:12:34.867Z,9.93
2023-02-24T16:15:04.430Z,10.90
2023-02-24T16:17:37.979Z,11.07
2023-02-24T16:20:09.342Z,8.90
2023-02-24T16:22:37.287Z,9.83
2023-02-24T16:25:07.597Z,11.27
2023-02-24T16:27:37.754Z,10.23
2023-02-24T16:30:07.337Z,11.33
2023-02-24T16:32:35.617Z,11.40
2023-02-24T16:35:05.733Z,10.40
2023-02-24T16:37:36.184Z,12.30
2023-02-24T16:40:10.609Z,12.33
2023-02-24T16:42:40.483Z,13.50
2023-02-24T16:45:14.383Z,11.17
2023-02-24T16:47:43.121Z,13.10
2023-02-24T16:50:19.915Z,12.00
2023-02-24T16:52:47.842Z,12.90
2023-02-24T16:55:18.909Z,12.80
2023-02-24T16:57:48.844Z,12.43
2023-02-24T17:00:18.376Z,11.13
2023-02-24T17:02:50.178Z,10.93
2023-02-24T17:05:20.420Z,11.57
2023-02-24T17:07:49.314Z,10.27
2023-02-24T17:10:17.807Z,10.07
2023-02-24T17:12:46.342Z,9.60
2023-02-24T17:15:17.518Z,8.47
2023-02-24T17:17:47.728Z,9.47
2023-02-24T17:20:17.402Z,8.67
2023-02-24T17:22:45.830Z,8.70
2023-02-24T17:25:22.456Z,8.90
2023-02-24T17:27:53.375Z,7.60
2023-02-24T17:30:26.992Z,7.87
2023-02-24T17:32:55.350Z,7.23
2023-02-24T17:35:24.139Z,7.03
2023-02-24T17:37:56.628Z,7.20
2023-02-24T17:40:24.930Z,6.80
2023-02-24T17:42:53.021Z,7.90
2023-02-24T17:45:28.409Z,7.43
2023-02-24T17:48:07.150Z,6.50
2023-02-24T17:50:40.573Z,6.00
2023-02-24T17:53:10.675Z,7.00
2023-02-24T17:56:01.119Z,6.23
2023-02-24T17:58:34.789Z,7.50
2023-02-24T18:01:07.739Z,6.83
2023-02-24T18:03:36.781Z,6.60
2023-02-24T18:06:10.516Z,6.60
2023-02-24T18:08:41.674Z,5.90
2023-02-24T18:11:13.372Z,7.77
2023-02-24T18:13:41.161Z,6.63
2023-02-24T18:16:12.953Z,7.67
2023-02-24T18:18:41.178Z,8.73
2023-02-24T18:21:10.877Z,9.20
2023-02-24T18:23:41.813Z,8.30
2023-02-24T18:26:16.717Z,7.57
2023-02-24T18:28:44.519Z,10.90
2023-02-24T18:31:16.328Z,9.27
2023-02-24T18:33:44.674Z,8.13
2023-02-24T18:36:13.431Z,10.30
2023-02-24T18:38:41.749Z,8.40
2023-02-24T18:41:12.411Z,8.70
2023-02-24T18:43:42.868Z,8.80
2023-02-24T18:46:18.633Z,8.93
2023-02-24T18:48:49.833Z,8.50
2023-02-24T18:51:19.739Z,9.07
2023-02-24T18:53:48.517Z,7.27
2023-02-24T18:56:21.893Z,9.43
2023-02-24T18:58:51.540Z,8.70
2023-02-24T19:01:33.261Z,11.47
2023-02-24T19:04:04.395Z,9.03
2023-02-24T19:06:47.164Z,10.20
2023-02-24T19:09:15.308Z,9.40
2023-02-24T19:11:43.480Z,10.83
2023-02-24T19:14:15.940Z,10.13
2023-02-24T19:16:45.705Z,9.40
2023-02-24T19:19:14.864Z,10.20
2023-02-24T19:21:46.184Z,11.90
2023-02-24T19:24:14.564Z,10.73
2023-02-24T19:26:47.650Z,8.93
2023-02-24T19:29:17.557Z,10.80
2023-02-24T19:31:47.124Z,10.10
2023-02-24T19:34:16.159Z,8.70
2023-02-24T19:36:50.763Z,9.97
2023-02-24T19:39:18.953Z,9.60
2023-02-24T19:41:54.486Z,10.60
2023-02-24T19:44:22.683Z,9.60
2023-02-24T19:46:55.250Z,10.00
2023-02-24T19:49:25.937Z,9.40
2023-02-24T19:51:55.049Z,12.27
2023-02-24T19:54:25.705Z,11.90
2023-02-24T19:56:57.163Z,12.20
2023-02-24T19:59:25.474Z,9.83
2023-02-24T20:01:55.262Z,10.70
2023-02-24T20:04:40.524Z,10.80
2023-02-24T20:07:11.838Z,10.23
2023-02-24T20:09:42.106Z,10.73
2023-02-24T20:12:12.692Z,11.33
2023-02-24T20:14:41.225Z,9.27
2023-02-24T20:17:15.310Z,10.80
2023-02-24T20:19:43.665Z,10.23
2023-02-24T20:22:13.560Z,10.87
2023-02-24T20:24:42.812Z,10.60
2023-02-24T20:27:12.294Z,10.07
2023-02-24T20:29:41.606Z,11.10
2023-02-24T20:32:11.537Z,16.60
2023-02-24T20:34:40.122Z,9.97
2023-02-24T20:37:08.092Z,10.53
2023-02-24T20:39:44.230Z,11.80
2023-02-24T20:42:12.528Z,10.40
2023-02-24T20:44:45.074Z,10.63
2023-02-24T20:47:21.770Z,10.33
2023-02-24T20:49:52.736Z,11.17
2023-02-24T20:52:20.619Z,10.20
2023-02-24T20:54:49.496Z,10.07
2023-02-24T20:57:17.762Z,9.73
2023-02-24T21:00:01.492Z,10.10
2023-02-24T21:02:32.610Z,9.57
2023-02-24T21:05:03.178Z,10.20
2023-02-24T21:07:32.746Z,9.17
2023-02-24T21:10:00.736Z,11.13
2023-02-24T21:12:28.679Z,8.93
2023-02-24T21:14:57.705Z,7.87
2023-02-24T21:17:25.682Z,10.20
2023-02-24T21:19:56.794Z,9.13
2023-02-24T21:22:27.223Z,9.10
2023-02-24T21:24:58.162Z,11.53
2023-02-24T21:27:27.450Z,5.10
2023-02-24T21:29:57.320Z,4.10
2023-02-24T21:32:28.011Z,4.90
2023-02-24T21:35:05.082Z,3.87
2023-02-24T21:37:35.171Z,4.20
2023-02-24T21:40:10.871Z,4.30
2023-02-24T21:42:47.669Z,3.80
2023-02-24T21:45:21.448Z,3.97
2023-02-24T21:47:49.611Z,4.30
2023-02-24T21:50:21.760Z,3.30
2023-02-24T21:52:52.064Z,4.00
2023-02-24T21:55:23.502Z,4.33
2023-02-24T21:57:53.966Z,3.80
2023-02-24T22:00:24.196Z,3.30
2023-02-24T22:02:54.471Z,3.73
2023-02-24T22:05:25.368Z,3.70
2023-02-24T22:07:54.322Z,2.77
2023-02-24T22:10:24.252Z,4.37
2023-02-24T22:12:55.229Z,3.53
2023-02-24T22:15:24.266Z,3.90
2023-02-24T22:17:54.486Z,3.07
2023-02-24T22:20:23.824Z,2.80
2023-02-24T22:22:51.729Z,4.60
2023-02-24T22:25:20.710Z,4.03
2023-02-24T22:27:48.689Z,7.63
2023-02-24T22:30:16.617Z,4.57
2023-02-24T22:32:47.301Z,11.10
2023-02-24T22:35:17.683Z,4.03
2023-02-24T22:37:46.976Z,3.47
2023-02-24T22:40:20.807Z,3.80
2023-02-24T22:42:51.736Z,3.40
2023-02-24T22:45:20.821Z,4.50
2023-02-24T22:47:48.725Z,4.87
2023-02-24T22:50:16.986Z,4.83
2023-02-24T22:52:48.974Z,3.30
2023-02-24T22:55:24.082Z,4.83
2023-02-24T22:57:58.174Z,4.80
2023-02-24T23:00:26.332Z,3.90
2023-02-24T23:02:54.133Z,3.80
2023-02-24T23:05:22.489Z,4.70
2023-02-24T23:07:51.673Z,4.73
2023-02-24T23:10:19.653Z,5.43
2023-02-24T23:12:48.744Z,6.87
2023-02-24T23:15:20.131Z,4.37
2023-02-24T23:17:51.451Z,4.50
2023-02-24T23:20:20.133Z,3.60
2023-02-24T23:23:05.601Z,3.97
2023-02-24T23:25:36.372Z,5.37
2023-02-24T23:28:05.270Z,4.97
2023-02-24T23:30:43.451Z,3.40
2023-02-24T23:33:12.260Z,3.90
2023-02-24T23:35:46.495Z,4.40
2023-02-24T23:38:18.467Z,3.53
2023-02-24T23:40:50.433Z,3.87
2023-02-24T23:43:23.804Z,3.63
2023-02-24T23:45:51.612Z,3.03
2023-02-24T23:48:24.986Z,3.80
2023-02-24T23:50:57.220Z,6.30
2023-02-24T23:53:26.645Z,4.27
2023-02-24T23:55:54.557Z,4.20
2023-02-24T23:58:26.593Z,4.37
